sensor_id;sensor_type;location;lat;lon;timestamp;P1;durP1;ratioP1;P2;durP2;ratioP2
12625;SDS011;6378;42.684;23.372;2024-03-08T00:00:40;4.33;;;3.53;;
12625;SDS011;6378;42.684;23.372;2024-03-08T00:03:07;4.83;;;3.47;;
12625;SDS011;6378;42.684;23.372;2024-03-08T00:05:35;4.77;;;3.67;;
12625;SDS011;6378;42.684;23.372;2024-03-08T00:08:01;4.23;;;3.30;;
12625;SDS011;6378;42.684;23.372;2024-03-08T00:10:27;4.17;;;3.23;;
12625;SDS011;6378;42.684;23.372;2024-03-08T00:12:53;8.60;;;6.13;;
12625;SDS011;6378;42.684;23.372;2024-03-08T00:15:19;5.00;;;4.40;;
12625;SDS011;6378;42.684;23.372;2024-03-08T00:17:45;7.30;;;4.97;;
12625;SDS011;6378;42.684;23.372;2024-03-08T00:20:11;8.10;;;5.07;;
12625;SDS011;6378;42.684;23.372;2024-03-08T00:22:38;7.67;;;5.33;;
12625;SDS011;6378;42.684;23.372;2024-03-08T00:25:04;6.80;;;5.10;;
12625;SDS011;6378;42.684;23.372;2024-03-08T00:27:30;6.73;;;5.00;;
12625;SDS011;6378;42.684;23.372;2024-03-08T00:29:57;8.67;;;5.87;;
12625;SDS011;6378;42.684;23.372;2024-03-08T00:32:22;8.60;;;4.93;;
12625;SDS011;6378;42.684;23.372;2024-03-08T00:34:52;9.43;;;5.80;;
12625;SDS011;6378;42.684;23.372;2024-03-08T00:37:20;8.07;;;5.23;;
12625;SDS011;6378;42.684;23.372;2024-03-08T00:39:51;8.20;;;5.53;;
12625;SDS011;6378;42.684;23.372;2024-03-08T00:42:17;6.63;;;5.30;;
12625;SDS011;6378;42.684;23.372;2024-03-08T00:44:43;6.87;;;4.73;;
12625;SDS011;6378;42.684;23.372;2024-03-08T00:47:09;7.17;;;4.13;;
12625;SDS011;6378;42.684;23.372;2024-03-08T00:49:34;5.20;;;3.60;;
12625;SDS011;6378;42.684;23.372;2024-03-08T00:52:06;3.23;;;2.80;;
12625;SDS011;6378;42.684;23.372;2024-03-08T00:54:32;4.23;;;3.27;;
12625;SDS011;6378;42.684;23.372;2024-03-08T00:56:58;3.57;;;3.13;;
12625;SDS011;6378;42.684;23.372;2024-03-08T00:59:23;3.70;;;2.60;;
12625;SDS011;6378;42.684;23.372;2024-03-08T01:01:49;3.97;;;2.90;;
12625;SDS011;6378;42.684;23.372;2024-03-08T01:04:14;3.17;;;2.63;;
12625;SDS011;6378;42.684;23.372;2024-03-08T01:06:40;2.90;;;2.47;;
12625;SDS011;6378;42.684;23.372;2024-03-08T01:09:05;2.70;;;2.10;;
12625;SDS011;6378;42.684;23.372;2024-03-08T01:11:32;3.30;;;2.60;;
12625;SDS011;6378;42.684;23.372;2024-03-08T01:13:59;3.30;;;2.83;;
12625;SDS011;6378;42.684;23.372;2024-03-08T01:16:24;2.23;;;1.97;;
12625;SDS011;6378;42.684;23.372;2024-03-08T01:18:50;3.20;;;2.60;;
12625;SDS011;6378;42.684;23.372;2024-03-08T01:21:15;3.13;;;2.60;;
12625;SDS011;6378;42.684;23.372;2024-03-08T01:23:41;3.33;;;2.90;;
12625;SDS011;6378;42.684;23.372;2024-03-08T01:26:07;4.97;;;3.33;;
12625;SDS011;6378;42.684;23.372;2024-03-08T01:28:32;3.83;;;3.03;;
12625;SDS011;6378;42.684;23.372;2024-03-08T01:30:59;4.67;;;3.60;;
12625;SDS011;6378;42.684;23.372;2024-03-08T01:33:26;3.30;;;3.00;;
12625;SDS011;6378;42.684;23.372;2024-03-08T01:35:52;4.03;;;3.33;;
12625;SDS011;6378;42.684;23.372;2024-03-08T01:38:20;5.10;;;3.43;;
12625;SDS011;6378;42.684;23.372;2024-03-08T01:40:49;4.13;;;3.70;;
12625;SDS011;6378;42.684;23.372;2024-03-08T01:43:17;4.70;;;3.80;;
12625;SDS011;6378;42.684;23.372;2024-03-08T01:45:44;5.07;;;3.63;;
12625;SDS011;6378;42.684;23.372;2024-03-08T01:48:09;4.63;;;3.60;;
12625;SDS011;6378;42.684;23.372;2024-03-08T01:50:35;7.10;;;3.77;;
12625;SDS011;6378;42.684;23.372;2024-03-08T01:53:01;4.70;;;3.50;;
12625;SDS011;6378;42.684;23.372;2024-03-08T01:55:28;4.53;;;3.67;;
12625;SDS011;6378;42.684;23.372;2024-03-08T01:57:53;4.27;;;3.70;;
12625;SDS011;6378;42.684;23.372;2024-03-08T02:00:20;4.10;;;3.30;;
12625;SDS011;6378;42.684;23.372;2024-03-08T02:02:46;5.03;;;3.50;;
12625;SDS011;6378;42.684;23.372;2024-03-08T02:05:14;4.73;;;3.77;;
12625;SDS011;6378;42.684;23.372;2024-03-08T02:07:41;4.03;;;3.30;;
12625;SDS011;6378;42.684;23.372;2024-03-08T02:10:09;4.60;;;4.20;;
12625;SDS011;6378;42.684;23.372;2024-03-08T02:12:35;5.23;;;3.80;;
12625;SDS011;6378;42.684;23.372;2024-03-08T02:15:01;6.10;;;3.97;;
12625;SDS011;6378;42.684;23.372;2024-03-08T02:17:26;3.53;;;3.20;;
12625;SDS011;6378;42.684;23.372;2024-03-08T02:19:52;4.70;;;3.40;;
12625;SDS011;6378;42.684;23.372;2024-03-08T02:22:17;3.83;;;3.40;;
12625;SDS011;6378;42.684;23.372;2024-03-08T02:24:43;4.43;;;3.70;;
12625;SDS011;6378;42.684;23.372;2024-03-08T02:27:08;3.63;;;3.33;;
12625;SDS011;6378;42.684;23.372;2024-03-08T02:29:36;3.53;;;3.13;;
12625;SDS011;6378;42.684;23.372;2024-03-08T02:32:02;3.53;;;3.20;;
12625;SDS011;6378;42.684;23.372;2024-03-08T02:34:28;2.73;;;2.47;;
12625;SDS011;6378;42.684;23.372;2024-03-08T02:36:56;3.13;;;2.80;;
12625;SDS011;6378;42.684;23.372;2024-03-08T02:39:21;2.80;;;2.57;;
12625;SDS011;6378;42.684;23.372;2024-03-08T02:41:47;2.60;;;2.40;;
12625;SDS011;6378;42.684;23.372;2024-03-08T02:44:12;2.60;;;2.40;;
12625;SDS011;6378;42.684;23.372;2024-03-08T02:46:38;3.60;;;2.70;;
12625;SDS011;6378;42.684;23.372;2024-03-08T02:49:04;3.90;;;2.63;;
12625;SDS011;6378;42.684;23.372;2024-03-08T02:51:31;2.63;;;2.30;;
12625;SDS011;6378;42.684;23.372;2024-03-08T02:53:56;3.43;;;2.73;;
12625;SDS011;6378;42.684;23.372;2024-03-08T02:56:22;2.20;;;2.00;;
12625;SDS011;6378;42.684;23.372;2024-03-08T02:58:47;2.70;;;2.00;;
12625;SDS011;6378;42.684;23.372;2024-03-08T03:01:14;2.50;;;1.83;;
12625;SDS011;6378;42.684;23.372;2024-03-08T03:03:40;1.80;;;1.70;;
12625;SDS011;6378;42.684;23.372;2024-03-08T03:06:06;2.03;;;1.83;;
12625;SDS011;6378;42.684;23.372;2024-03-08T03:08:32;1.50;;;1.40;;
12625;SDS011;6378;42.684;23.372;2024-03-08T03:10:57;1.67;;;1.57;;
12625;SDS011;6378;42.684;23.372;2024-03-08T03:13:23;1.67;;;1.57;;
12625;SDS011;6378;42.684;23.372;2024-03-08T03:15:48;1.80;;;1.63;;
12625;SDS011;6378;42.684;23.372;2024-03-08T03:18:14;1.53;;;1.43;;
12625;SDS011;6378;42.684;23.372;2024-03-08T03:20:40;2.40;;;1.70;;
12625;SDS011;6378;42.684;23.372;2024-03-08T03:23:07;1.73;;;1.63;;
12625;SDS011;6378;42.684;23.372;2024-03-08T03:25:34;1.60;;;1.50;;
12625;SDS011;6378;42.684;23.372;2024-03-08T03:28:03;1.70;;;1.60;;
12625;SDS011;6378;42.684;23.372;2024-03-08T03:30:29;1.70;;;1.60;;
12625;SDS011;6378;42.684;23.372;2024-03-08T03:32:58;2.20;;;1.60;;
12625;SDS011;6378;42.684;23.372;2024-03-08T03:35:26;1.93;;;1.70;;
12625;SDS011;6378;42.684;23.372;2024-03-08T03:37:52;2.00;;;1.80;;
12625;SDS011;6378;42.684;23.372;2024-03-08T03:40:30;1.83;;;1.70;;
12625;SDS011;6378;42.684;23.372;2024-03-08T03:42:56;1.87;;;1.77;;
12625;SDS011;6378;42.684;23.372;2024-03-08T03:45:22;1.70;;;1.60;;
12625;SDS011;6378;42.684;23.372;2024-03-08T03:47:48;1.90;;;1.67;;
12625;SDS011;6378;42.684;23.372;2024-03-08T03:50:14;2.30;;;2.10;;
12625;SDS011;6378;42.684;23.372;2024-03-08T03:52:39;2.10;;;1.87;;
12625;SDS011;6378;42.684;23.372;2024-03-08T03:55:05;2.70;;;1.80;;
12625;SDS011;6378;42.684;23.372;2024-03-08T03:57:31;2.60;;;2.00;;
12625;SDS011;6378;42.684;23.372;2024-03-08T03:59:57;2.10;;;1.90;;
12625;SDS011;6378;42.684;23.372;2024-03-08T04:02:25;2.20;;;2.00;;
12625;SDS011;6378;42.684;23.372;2024-03-08T04:04:52;2.03;;;1.70;;
12625;SDS011;6378;42.684;23.372;2024-03-08T04:07:19;2.27;;;1.87;;
12625;SDS011;6378;42.684;23.372;2024-03-08T04:09:45;1.90;;;1.80;;
12625;SDS011;6378;42.684;23.372;2024-03-08T04:12:11;2.17;;;1.80;;
12625;SDS011;6378;42.684;23.372;2024-03-08T04:14:36;2.00;;;1.80;;
12625;SDS011;6378;42.684;23.372;2024-03-08T04:17:03;2.40;;;2.00;;
12625;SDS011;6378;42.684;23.372;2024-03-08T04:19:29;2.70;;;2.00;;
12625;SDS011;6378;42.684;23.372;2024-03-08T04:21:55;2.30;;;2.10;;
12625;SDS011;6378;42.684;23.372;2024-03-08T04:24:20;3.03;;;2.33;;
12625;SDS011;6378;42.684;23.372;2024-03-08T04:26:46;2.40;;;2.20;;
12625;SDS011;6378;42.684;23.372;2024-03-08T04:29:12;2.67;;;2.37;;
12625;SDS011;6378;42.684;23.372;2024-03-08T04:31:39;3.50;;;2.30;;
12625;SDS011;6378;42.684;23.372;2024-03-08T04:34:05;2.57;;;2.33;;
12625;SDS011;6378;42.684;23.372;2024-03-08T04:36:31;2.90;;;2.40;;
12625;SDS011;6378;42.684;23.372;2024-03-08T04:38:57;2.67;;;2.23;;
12625;SDS011;6378;42.684;23.372;2024-03-08T04:41:23;3.20;;;2.90;;
12625;SDS011;6378;42.684;23.372;2024-03-08T04:43:48;2.60;;;2.37;;
12625;SDS011;6378;42.684;23.372;2024-03-08T04:46:14;3.10;;;2.77;;
12625;SDS011;6378;42.684;23.372;2024-03-08T04:48:41;2.70;;;2.40;;
12625;SDS011;6378;42.684;23.372;2024-03-08T04:51:08;2.63;;;2.40;;
12625;SDS011;6378;42.684;23.372;2024-03-08T04:53:34;3.13;;;2.70;;
12625;SDS011;6378;42.684;23.372;2024-03-08T04:56:00;3.90;;;2.83;;
12625;SDS011;6378;42.684;23.372;2024-03-08T04:58:31;3.37;;;3.07;;
12625;SDS011;6378;42.684;23.372;2024-03-08T05:00:57;3.00;;;2.50;;
12625;SDS011;6378;42.684;23.372;2024-03-08T05:03:23;3.40;;;3.10;;
12625;SDS011;6378;42.684;23.372;2024-03-08T05:05:51;3.90;;;2.70;;
12625;SDS011;6378;42.684;23.372;2024-03-08T05:08:17;3.20;;;2.67;;
12625;SDS011;6378;42.684;23.372;2024-03-08T05:10:43;3.70;;;3.30;;
12625;SDS011;6378;42.684;23.372;2024-03-08T05:13:09;5.63;;;3.23;;
12625;SDS011;6378;42.684;23.372;2024-03-08T05:15:35;3.73;;;3.30;;
12625;SDS011;6378;42.684;23.372;2024-03-08T05:18:01;4.37;;;3.60;;
12625;SDS011;6378;42.684;23.372;2024-03-08T05:20:27;4.37;;;3.97;;
12625;SDS011;6378;42.684;23.372;2024-03-08T05:22:52;4.60;;;4.10;;
12625;SDS011;6378;42.684;23.372;2024-03-08T05:25:18;7.37;;;5.60;;
12625;SDS011;6378;42.684;23.372;2024-03-08T05:27:44;8.20;;;6.30;;
12625;SDS011;6378;42.684;23.372;2024-03-08T05:30:09;9.70;;;6.50;;
12625;SDS011;6378;42.684;23.372;2024-03-08T05:32:40;10.00;;;7.40;;
12625;SDS011;6378;42.684;23.372;2024-03-08T05:35:10;10.27;;;7.07;;
12625;SDS011;6378;42.684;23.372;2024-03-08T05:37:37;10.60;;;6.90;;
12625;SDS011;6378;42.684;23.372;2024-03-08T05:40:03;12.63;;;7.90;;
12625;SDS011;6378;42.684;23.372;2024-03-08T05:45:18;11.07;;;7.37;;
12625;SDS011;6378;42.684;23.372;2024-03-08T05:47:43;15.20;;;9.00;;
12625;SDS011;6378;42.684;23.372;2024-03-08T05:50:09;14.17;;;9.83;;
12625;SDS011;6378;42.684;23.372;2024-03-08T05:52:36;13.23;;;9.17;;
12625;SDS011;6378;42.684;23.372;2024-03-08T05:55:03;13.37;;;8.23;;
12625;SDS011;6378;42.684;23.372;2024-03-08T05:57:32;10.70;;;8.30;;
12625;SDS011;6378;42.684;23.372;2024-03-08T05:59:58;13.83;;;9.30;;
12625;SDS011;6378;42.684;23.372;2024-03-08T06:02:23;13.33;;;9.07;;
12625;SDS011;6378;42.684;23.372;2024-03-08T06:04:49;14.40;;;9.60;;
12625;SDS011;6378;42.684;23.372;2024-03-08T06:07:14;14.47;;;9.67;;
12625;SDS011;6378;42.684;23.372;2024-03-08T06:09:42;14.83;;;9.87;;
12625;SDS011;6378;42.684;23.372;2024-03-08T06:12:11;15.70;;;10.07;;
12625;SDS011;6378;42.684;23.372;2024-03-08T06:14:36;14.60;;;9.80;;
12625;SDS011;6378;42.684;23.372;2024-03-08T06:17:02;14.23;;;8.80;;
12625;SDS011;6378;42.684;23.372;2024-03-08T06:19:32;12.40;;;8.60;;
12625;SDS011;6378;42.684;23.372;2024-03-08T06:21:57;13.27;;;8.93;;
12625;SDS011;6378;42.684;23.372;2024-03-08T06:24:23;11.57;;;7.80;;
12625;SDS011;6378;42.684;23.372;2024-03-08T06:26:48;13.00;;;9.37;;
12625;SDS011;6378;42.684;23.372;2024-03-08T06:29:14;11.00;;;7.80;;
12625;SDS011;6378;42.684;23.372;2024-03-08T06:31:40;12.43;;;8.40;;
12625;SDS011;6378;42.684;23.372;2024-03-08T06:34:06;9.47;;;7.07;;
12625;SDS011;6378;42.684;23.372;2024-03-08T06:36:33;10.47;;;7.33;;
12625;SDS011;6378;42.684;23.372;2024-03-08T06:38:58;9.97;;;7.10;;
12625;SDS011;6378;42.684;23.372;2024-03-08T06:41:24;7.80;;;6.37;;
12625;SDS011;6378;42.684;23.372;2024-03-08T06:43:49;8.27;;;6.93;;
12625;SDS011;6378;42.684;23.372;2024-03-08T06:46:17;10.03;;;7.23;;
12625;SDS011;6378;42.684;23.372;2024-03-08T06:48:43;12.20;;;9.07;;
12625;SDS011;6378;42.684;23.372;2024-03-08T06:51:10;10.80;;;7.60;;
12625;SDS011;6378;42.684;23.372;2024-03-08T06:53:36;10.80;;;7.80;;
12625;SDS011;6378;42.684;23.372;2024-03-08T06:56:02;10.73;;;7.17;;
12625;SDS011;6378;42.684;23.372;2024-03-08T06:58:28;7.47;;;6.00;;
12625;SDS011;6378;42.684;23.372;2024-03-08T07:00:54;8.10;;;6.60;;
12625;SDS011;6378;42.684;23.372;2024-03-08T07:03:23;9.33;;;7.67;;
12625;SDS011;6378;42.684;23.372;2024-03-08T07:05:49;8.00;;;6.30;;
12625;SDS011;6378;42.684;23.372;2024-03-08T07:08:15;9.73;;;7.00;;
12625;SDS011;6378;42.684;23.372;2024-03-08T07:10:41;11.40;;;8.07;;
12625;SDS011;6378;42.684;23.372;2024-03-08T07:13:07;8.47;;;5.60;;
12625;SDS011;6378;42.684;23.372;2024-03-08T07:15:33;7.10;;;5.53;;
12625;SDS011;6378;42.684;23.372;2024-03-08T07:17:59;7.97;;;5.90;;
12625;SDS011;6378;42.684;23.372;2024-03-08T07:20:25;7.90;;;5.33;;
12625;SDS011;6378;42.684;23.372;2024-03-08T07:22:50;7.43;;;5.90;;
12625;SDS011;6378;42.684;23.372;2024-03-08T07:25:16;7.10;;;5.07;;
12625;SDS011;6378;42.684;23.372;2024-03-08T07:27:54;6.87;;;5.37;;
12625;SDS011;6378;42.684;23.372;2024-03-08T07:30:21;7.90;;;5.57;;
12625;SDS011;6378;42.684;23.372;2024-03-08T07:33:07;9.27;;;5.67;;
12625;SDS011;6378;42.684;23.372;2024-03-08T07:35:33;8.00;;;5.93;;
12625;SDS011;6378;42.684;23.372;2024-03-08T07:38:03;9.07;;;5.70;;
12625;SDS011;6378;42.684;23.372;2024-03-08T07:40:36;8.13;;;5.90;;
12625;SDS011;6378;42.684;23.372;2024-03-08T07:43:05;8.27;;;5.63;;
12625;SDS011;6378;42.684;23.372;2024-03-08T07:45:31;7.20;;;5.07;;
12625;SDS011;6378;42.684;23.372;2024-03-08T07:47:57;6.60;;;5.30;;
12625;SDS011;6378;42.684;23.372;2024-03-08T07:50:22;7.37;;;5.00;;
12625;SDS011;6378;42.684;23.372;2024-03-08T07:52:48;8.63;;;5.50;;
12625;SDS011;6378;42.684;23.372;2024-03-08T07:55:14;8.67;;;6.40;;
12625;SDS011;6378;42.684;23.372;2024-03-08T07:57:40;7.90;;;5.63;;
12625;SDS011;6378;42.684;23.372;2024-03-08T08:00:05;9.33;;;6.33;;
12625;SDS011;6378;42.684;23.372;2024-03-08T08:02:33;6.70;;;5.50;;
12625;SDS011;6378;42.684;23.372;2024-03-08T08:05:00;6.53;;;4.83;;
12625;SDS011;6378;42.684;23.372;2024-03-08T08:07:25;6.50;;;4.80;;
12625;SDS011;6378;42.684;23.372;2024-03-08T08:09:52;7.63;;;5.73;;
12625;SDS011;6378;42.684;23.372;2024-03-08T08:12:18;9.87;;;7.10;;
12625;SDS011;6378;42.684;23.372;2024-03-08T08:14:44;6.93;;;5.50;;
12625;SDS011;6378;42.684;23.372;2024-03-08T08:17:09;7.37;;;5.03;;
12625;SDS011;6378;42.684;23.372;2024-03-08T08:19:35;5.20;;;4.30;;
12625;SDS011;6378;42.684;23.372;2024-03-08T08:22:01;14.47;;;5.47;;
12625;SDS011;6378;42.684;23.372;2024-03-08T08:24:29;9.93;;;5.10;;
12625;SDS011;6378;42.684;23.372;2024-03-08T08:26:55;4.10;;;3.70;;
12625;SDS011;6378;42.684;23.372;2024-03-08T08:29:20;5.27;;;3.40;;
12625;SDS011;6378;42.684;23.372;2024-03-08T08:31:47;7.30;;;3.40;;
12625;SDS011;6378;42.684;23.372;2024-03-08T08:34:12;6.73;;;4.13;;
12625;SDS011;6378;42.684;23.372;2024-03-08T08:36:38;4.47;;;4.03;;
12625;SDS011;6378;42.684;23.372;2024-03-08T08:39:04;5.23;;;3.23;;
12625;SDS011;6378;42.684;23.372;2024-03-08T08:41:36;5.30;;;3.37;;
12625;SDS011;6378;42.684;23.372;2024-03-08T08:44:01;4.50;;;3.57;;
12625;SDS011;6378;42.684;23.372;2024-03-08T08:46:27;4.63;;;3.13;;
12625;SDS011;6378;42.684;23.372;2024-03-08T08:48:53;5.33;;;3.63;;
12625;SDS011;6378;42.684;23.372;2024-03-08T08:51:19;8.43;;;4.57;;
12625;SDS011;6378;42.684;23.372;2024-03-08T08:53:44;5.30;;;3.67;;
12625;SDS011;6378;42.684;23.372;2024-03-08T08:56:12;5.93;;;3.90;;
12625;SDS011;6378;42.684;23.372;2024-03-08T08:58:39;3.67;;;3.13;;
12625;SDS011;6378;42.684;23.372;2024-03-08T09:01:06;4.57;;;3.13;;
12625;SDS011;6378;42.684;23.372;2024-03-08T09:03:32;4.30;;;3.00;;
12625;SDS011;6378;42.684;23.372;2024-03-08T09:06:00;7.00;;;3.23;;
12625;SDS011;6378;42.684;23.372;2024-03-08T09:08:27;4.43;;;3.37;;
12625;SDS011;6378;42.684;23.372;2024-03-08T09:10:53;6.13;;;4.00;;
12625;SDS011;6378;42.684;23.372;2024-03-08T09:13:19;6.27;;;3.83;;
12625;SDS011;6378;42.684;23.372;2024-03-08T09:15:45;5.43;;;4.00;;
12625;SDS011;6378;42.684;23.372;2024-03-08T09:18:10;7.53;;;3.53;;
12625;SDS011;6378;42.684;23.372;2024-03-08T09:20:36;3.80;;;2.90;;
12625;SDS011;6378;42.684;23.372;2024-03-08T09:23:02;5.53;;;3.37;;
12625;SDS011;6378;42.684;23.372;2024-03-08T09:25:29;5.63;;;3.80;;
12625;SDS011;6378;42.684;23.372;2024-03-08T09:27:55;9.00;;;4.03;;
12625;SDS011;6378;42.684;23.372;2024-03-08T09:30:20;7.83;;;3.77;;
12625;SDS011;6378;42.684;23.372;2024-03-08T09:32:46;18.27;;;6.17;;
12625;SDS011;6378;42.684;23.372;2024-03-08T09:35:12;5.77;;;3.87;;
12625;SDS011;6378;42.684;23.372;2024-03-08T09:37:38;6.03;;;4.00;;
12625;SDS011;6378;42.684;23.372;2024-03-08T09:40:04;5.50;;;4.37;;
12625;SDS011;6378;42.684;23.372;2024-03-08T09:42:37;4.60;;;3.37;;
12625;SDS011;6378;42.684;23.372;2024-03-08T09:45:07;5.13;;;3.00;;
12625;SDS011;6378;42.684;23.372;2024-03-08T09:47:38;3.43;;;2.60;;
12625;SDS011;6378;42.684;23.372;2024-03-08T09:50:06;3.67;;;3.30;;
12625;SDS011;6378;42.684;23.372;2024-03-08T09:52:35;2.97;;;2.67;;
12625;SDS011;6378;42.684;23.372;2024-03-08T09:55:02;3.07;;;2.80;;
12625;SDS011;6378;42.684;23.372;2024-03-08T09:57:31;11.67;;;3.93;;
12625;SDS011;6378;42.684;23.372;2024-03-08T09:59:57;5.43;;;3.90;;
12625;SDS011;6378;42.684;23.372;2024-03-08T10:02:23;3.57;;;3.03;;
12625;SDS011;6378;42.684;23.372;2024-03-08T10:04:48;6.47;;;3.10;;
12625;SDS011;6378;42.684;23.372;2024-03-08T10:07:18;2.90;;;2.57;;
12625;SDS011;6378;42.684;23.372;2024-03-08T10:09:44;5.10;;;2.80;;
12625;SDS011;6378;42.684;23.372;2024-03-08T10:12:15;6.57;;;2.93;;
12625;SDS011;6378;42.684;23.372;2024-03-08T10:14:42;4.00;;;3.27;;
12625;SDS011;6378;42.684;23.372;2024-03-08T10:17:08;3.53;;;2.80;;
12625;SDS011;6378;42.684;23.372;2024-03-08T10:19:33;2.97;;;2.67;;
12625;SDS011;6378;42.684;23.372;2024-03-08T10:21:59;5.33;;;3.00;;
12625;SDS011;6378;42.684;23.372;2024-03-08T10:24:25;4.13;;;2.67;;
12625;SDS011;6378;42.684;23.372;2024-03-08T10:26:51;4.33;;;2.93;;
12625;SDS011;6378;42.684;23.372;2024-03-08T10:29:18;4.50;;;3.00;;
12625;SDS011;6378;42.684;23.372;2024-03-08T10:31:44;2.97;;;2.67;;
12625;SDS011;6378;42.684;23.372;2024-03-08T10:34:11;3.63;;;2.90;;
12625;SDS011;6378;42.684;23.372;2024-03-08T10:36:37;4.57;;;2.83;;
12625;SDS011;6378;42.684;23.372;2024-03-08T10:39:07;4.37;;;2.80;;
12625;SDS011;6378;42.684;23.372;2024-03-08T10:41:46;3.20;;;2.40;;
12625;SDS011;6378;42.684;23.372;2024-03-08T10:44:23;3.70;;;2.83;;
12625;SDS011;6378;42.684;23.372;2024-03-08T10:50:15;3.20;;;2.90;;
12625;SDS011;6378;42.684;23.372;2024-03-08T10:52:45;5.90;;;3.90;;
12625;SDS011;6378;42.684;23.372;2024-03-08T10:55:14;2.60;;;1.87;;
12625;SDS011;6378;42.684;23.372;2024-03-08T10:57:42;1.90;;;1.80;;
12625;SDS011;6378;42.684;23.372;2024-03-08T11:00:08;5.50;;;3.03;;
12625;SDS011;6378;42.684;23.372;2024-03-08T11:02:36;2.53;;;2.20;;
12625;SDS011;6378;42.684;23.372;2024-03-08T11:05:04;2.10;;;1.90;;
12625;SDS011;6378;42.684;23.372;2024-03-08T11:07:34;5.37;;;2.60;;
12625;SDS011;6378;42.684;23.372;2024-03-08T11:10:03;2.33;;;2.13;;
12625;SDS011;6378;42.684;23.372;2024-03-08T11:12:35;2.83;;;2.10;;
12625;SDS011;6378;42.684;23.372;2024-03-08T11:15:03;2.70;;;2.50;;
12625;SDS011;6378;42.684;23.372;2024-03-08T11:20:08;2.60;;;2.20;;
12625;SDS011;6378;42.684;23.372;2024-03-08T11:22:40;2.87;;;2.03;;
12625;SDS011;6378;42.684;23.372;2024-03-08T11:25:16;7.97;;;3.63;;
12625;SDS011;6378;42.684;23.372;2024-03-08T11:28:17;2.10;;;1.90;;
12625;SDS011;6378;42.684;23.372;2024-03-08T11:33:27;3.43;;;2.23;;
12625;SDS011;6378;42.684;23.372;2024-03-08T11:36:07;3.37;;;2.30;;
12625;SDS011;6378;42.684;23.372;2024-03-08T11:38:42;2.00;;;1.90;;
12625;SDS011;6378;42.684;23.372;2024-03-08T11:41:14;3.00;;;2.10;;
12625;SDS011;6378;42.684;23.372;2024-03-08T11:43:40;2.53;;;2.27;;
12625;SDS011;6378;42.684;23.372;2024-03-08T11:46:12;5.63;;;2.60;;
12625;SDS011;6378;42.684;23.372;2024-03-08T11:48:39;3.40;;;2.20;;
12625;SDS011;6378;42.684;23.372;2024-03-08T11:51:07;2.43;;;2.23;;
12625;SDS011;6378;42.684;23.372;2024-03-08T11:53:33;2.87;;;2.40;;
12625;SDS011;6378;42.684;23.372;2024-03-08T11:56:08;4.20;;;2.57;;
12625;SDS011;6378;42.684;23.372;2024-03-08T11:58:38;3.73;;;2.33;;
12625;SDS011;6378;42.684;23.372;2024-03-08T12:01:08;3.97;;;2.50;;
12625;SDS011;6378;42.684;23.372;2024-03-08T12:03:41;2.40;;;2.20;;
12625;SDS011;6378;42.684;23.372;2024-03-08T12:06:12;2.80;;;2.47;;
12625;SDS011;6378;42.684;23.372;2024-03-08T12:08:40;2.70;;;2.10;;
12625;SDS011;6378;42.684;23.372;2024-03-08T12:11:05;4.40;;;2.60;;
12625;SDS011;6378;42.684;23.372;2024-03-08T12:13:32;3.97;;;2.83;;
12625;SDS011;6378;42.684;23.372;2024-03-08T12:16:02;6.17;;;2.40;;
12625;SDS011;6378;42.684;23.372;2024-03-08T12:18:37;2.60;;;1.80;;
12625;SDS011;6378;42.684;23.372;2024-03-08T12:23:31;2.00;;;1.80;;
12625;SDS011;6378;42.684;23.372;2024-03-08T12:25:56;11.90;;;2.93;;
12625;SDS011;6378;42.684;23.372;2024-03-08T12:28:22;2.07;;;1.87;;
12625;SDS011;6378;42.684;23.372;2024-03-08T12:30:48;3.23;;;2.20;;
12625;SDS011;6378;42.684;23.372;2024-03-08T12:33:16;3.93;;;2.13;;
12625;SDS011;6378;42.684;23.372;2024-03-08T12:35:49;2.93;;;2.43;;
12625;SDS011;6378;42.684;23.372;2024-03-08T12:38:23;2.70;;;2.23;;
12625;SDS011;6378;42.684;23.372;2024-03-08T12:40:57;4.43;;;2.50;;
12625;SDS011;6378;42.684;23.372;2024-03-08T12:43:23;3.40;;;2.40;;
12625;SDS011;6378;42.684;23.372;2024-03-08T12:45:49;5.07;;;2.70;;
12625;SDS011;6378;42.684;23.372;2024-03-08T12:48:15;2.60;;;1.97;;
12625;SDS011;6378;42.684;23.372;2024-03-08T12:50:41;3.13;;;2.00;;
12625;SDS011;6378;42.684;23.372;2024-03-08T12:53:09;3.93;;;2.60;;
12625;SDS011;6378;42.684;23.372;2024-03-08T12:55:35;3.40;;;2.30;;
12625;SDS011;6378;42.684;23.372;2024-03-08T12:58:00;2.27;;;1.93;;
12625;SDS011;6378;42.684;23.372;2024-03-08T13:00:26;2.77;;;1.97;;
12625;SDS011;6378;42.684;23.372;2024-03-08T13:02:53;1.87;;;1.77;;
12625;SDS011;6378;42.684;23.372;2024-03-08T13:05:18;2.53;;;2.00;;
12625;SDS011;6378;42.684;23.372;2024-03-08T13:07:45;2.93;;;1.90;;
12625;SDS011;6378;42.684;23.372;2024-03-08T13:10:14;2.63;;;2.03;;
12625;SDS011;6378;42.684;23.372;2024-03-08T13:12:43;3.37;;;2.23;;
12625;SDS011;6378;42.684;23.372;2024-03-08T13:15:09;2.00;;;1.70;;
12625;SDS011;6378;42.684;23.372;2024-03-08T13:17:40;2.57;;;1.90;;
12625;SDS011;6378;42.684;23.372;2024-03-08T13:20:07;1.80;;;1.70;;
12625;SDS011;6378;42.684;23.372;2024-03-08T13:22:32;3.23;;;1.83;;
12625;SDS011;6378;42.684;23.372;2024-03-08T13:24:58;1.93;;;1.60;;
12625;SDS011;6378;42.684;23.372;2024-03-08T13:27:26;2.27;;;2.07;;
12625;SDS011;6378;42.684;23.372;2024-03-08T13:29:52;3.63;;;2.07;;
12625;SDS011;6378;42.684;23.372;2024-03-08T13:32:18;3.93;;;2.33;;
12625;SDS011;6378;42.684;23.372;2024-03-08T13:34:45;2.20;;;1.80;;
12625;SDS011;6378;42.684;23.372;2024-03-08T13:37:16;4.47;;;2.20;;
12625;SDS011;6378;42.684;23.372;2024-03-08T13:39:41;2.70;;;2.50;;
12625;SDS011;6378;42.684;23.372;2024-03-08T13:42:12;3.23;;;2.20;;
12625;SDS011;6378;42.684;23.372;2024-03-08T13:44:47;5.10;;;2.83;;
12625;SDS011;6378;42.684;23.372;2024-03-08T13:47:16;6.17;;;2.90;;
12625;SDS011;6378;42.684;23.372;2024-03-08T13:49:42;5.23;;;2.60;;
12625;SDS011;6378;42.684;23.372;2024-03-08T13:52:09;4.00;;;2.70;;
12625;SDS011;6378;42.684;23.372;2024-03-08T13:54:35;2.00;;;1.80;;
12625;SDS011;6378;42.684;23.372;2024-03-08T13:57:02;1.93;;;1.80;;
12625;SDS011;6378;42.684;23.372;2024-03-08T13:59:32;2.20;;;2.00;;
12625;SDS011;6378;42.684;23.372;2024-03-08T14:01:59;2.57;;;2.10;;
12625;SDS011;6378;42.684;23.372;2024-03-08T14:04:27;7.30;;;2.47;;
12625;SDS011;6378;42.684;23.372;2024-03-08T14:06:53;5.20;;;3.07;;
12625;SDS011;6378;42.684;23.372;2024-03-08T14:09:23;4.10;;;2.97;;
12625;SDS011;6378;42.684;23.372;2024-03-08T14:11:50;4.10;;;2.73;;
12625;SDS011;6378;42.684;23.372;2024-03-08T14:14:21;4.37;;;3.10;;
12625;SDS011;6378;42.684;23.372;2024-03-08T14:16:50;3.37;;;2.70;;
12625;SDS011;6378;42.684;23.372;2024-03-08T14:19:20;5.73;;;3.60;;
12625;SDS011;6378;42.684;23.372;2024-03-08T14:21:46;8.33;;;4.83;;
12625;SDS011;6378;42.684;23.372;2024-03-08T14:24:13;4.27;;;3.87;;
12625;SDS011;6378;42.684;23.372;2024-03-08T14:26:40;6.17;;;4.10;;
12625;SDS011;6378;42.684;23.372;2024-03-08T14:29:07;5.23;;;3.70;;
12625;SDS011;6378;42.684;23.372;2024-03-08T14:31:35;5.73;;;3.17;;
12625;SDS011;6378;42.684;23.372;2024-03-08T14:34:01;4.20;;;2.60;;
12625;SDS011;6378;42.684;23.372;2024-03-08T14:36:28;5.77;;;3.40;;
12625;SDS011;6378;42.684;23.372;2024-03-08T14:38:54;5.17;;;3.70;;
12625;SDS011;6378;42.684;23.372;2024-03-08T14:41:20;4.10;;;3.10;;
12625;SDS011;6378;42.684;23.372;2024-03-08T14:43:47;3.83;;;3.00;;
12625;SDS011;6378;42.684;23.372;2024-03-08T14:46:13;3.20;;;2.40;;
12625;SDS011;6378;42.684;23.372;2024-03-08T14:48:42;4.00;;;3.10;;
12625;SDS011;6378;42.684;23.372;2024-03-08T14:51:09;4.80;;;3.07;;
12625;SDS011;6378;42.684;23.372;2024-03-08T14:53:36;4.30;;;2.83;;
12625;SDS011;6378;42.684;23.372;2024-03-08T14:56:06;3.50;;;2.70;;
12625;SDS011;6378;42.684;23.372;2024-03-08T14:58:33;3.67;;;3.37;;